sensor_id;sensor_type;location;lat;lon;timestamp;pressure;altitude;pressure_sealevel;temperature;humidity
52745;BME280;38637;49.984;20.426;2022-12-18T00:01:24;100746.47;;;-4.36;93.81
52745;BME280;38637;49.984;20.426;2022-12-18T00:03:51;100739.13;;;-4.44;93.48
52745;BME280;38637;49.984;20.426;2022-12-18T00:06:17;100763.19;;;-4.34;93.81
52745;BME280;38637;49.984;20.426;2022-12-18T00:08:43;100755.56;;;-4.39;93.22
52745;BME280;38637;49.984;20.426;2022-12-18T00:11:12;100751.00;;;-4.48;93.12
52745;BME280;38637;49.984;20.426;2022-12-18T00:13:38;100776.31;;;-4.42;93.67
52745;BME280;38637;49.984;20.426;2022-12-18T00:16:06;100772.66;;;-4.41;92.96
52745;BME280;38637;49.984;20.426;2022-12-18T00:18:32;100745.63;;;-4.57;93.13
52745;BME280;38637;49.984;20.426;2022-12-18T00:21:02;100778.44;;;-4.36;93.12
52745;BME280;38637;49.984;20.426;2022-12-18T00:23:28;100789.00;;;-4.34;93.19
52745;BME280;38637;49.984;20.426;2022-12-18T00:25:54;100750.22;;;-4.59;93.06
52745;BME280;38637;49.984;20.426;2022-12-18T00:28:19;100761.63;;;-4.57;92.62
52745;BME280;38637;49.984;20.426;2022-12-18T00:30:45;100757.28;;;-4.58;92.40
52745;BME280;38637;49.984;20.426;2022-12-18T00:33:10;100793.03;;;-4.40;92.88
52745;BME280;38637;49.984;20.426;2022-12-18T00:35:35;100791.22;;;-4.40;93.44
52745;BME280;38637;49.984;20.426;2022-12-18T00:38:01;100789.31;;;-4.49;92.66
52745;BME280;38637;49.984;20.426;2022-12-18T00:40:26;100806.09;;;-4.37;93.23
52745;BME280;38637;49.984;20.426;2022-12-18T00:42:52;100776.38;;;-4.53;92.95
52745;BME280;38637;49.984;20.426;2022-12-18T00:45:27;100796.00;;;-4.54;92.58
52745;BME280;38637;49.984;20.426;2022-12-18T00:47:53;100791.84;;;-4.47;92.98
52745;BME280;38637;49.984;20.426;2022-12-18T00:50:19;100806.94;;;-4.36;92.76
52745;BME280;38637;49.984;20.426;2022-12-18T00:52:44;100781.84;;;-4.55;92.12
52745;BME280;38637;49.984;20.426;2022-12-18T00:55:10;100813.97;;;-4.35;92.21
52745;BME280;38637;49.984;20.426;2022-12-18T00:57:36;100803.50;;;-4.48;92.51
52745;BME280;38637;49.984;20.426;2022-12-18T01:00:03;100820.38;;;-4.38;92.25
52745;BME280;38637;49.984;20.426;2022-12-18T01:02:28;100806.34;;;-4.61;92.40
52745;BME280;38637;49.984;20.426;2022-12-18T01:04:54;100812.16;;;-4.56;92.35
52745;BME280;38637;49.984;20.426;2022-12-18T01:07:19;100813.69;;;-4.53;92.89
52745;BME280;38637;49.984;20.426;2022-12-18T01:09:44;100806.34;;;-4.61;93.02
52745;BME280;38637;49.984;20.426;2022-12-18T01:12:10;100798.59;;;-4.64;93.16
52745;BME280;38637;49.984;20.426;2022-12-18T01:14:36;100823.81;;;-4.47;92.33
52745;BME280;38637;49.984;20.426;2022-12-18T01:17:03;100807.91;;;-4.58;92.77
52745;BME280;38637;49.984;20.426;2022-12-18T01:19:28;100822.16;;;-4.48;91.71
52745;BME280;38637;49.984;20.426;2022-12-18T01:21:54;100822.81;;;-4.56;91.93
52745;BME280;38637;49.984;20.426;2022-12-18T01:24:19;100827.63;;;-4.50;91.99
52745;BME280;38637;49.984;20.426;2022-12-18T01:26:44;100827.47;;;-4.48;92.41
52745;BME280;38637;49.984;20.426;2022-12-18T01:29:10;100842.22;;;-4.44;91.82
52745;BME280;38637;49.984;20.426;2022-12-18T01:31:35;100843.09;;;-4.44;92.49
52745;BME280;38637;49.984;20.426;2022-12-18T01:34:01;100864.63;;;-4.35;91.66
52745;BME280;38637;49.984;20.426;2022-12-18T01:36:29;100865.59;;;-4.36;91.53
52745;BME280;38637;49.984;20.426;2022-12-18T01:38:55;100849.53;;;-4.46;91.72
52745;BME280;38637;49.984;20.426;2022-12-18T01:41:28;100861.94;;;-4.35;92.22
52745;BME280;38637;49.984;20.426;2022-12-18T01:49:44;100865.13;;;-4.42;91.36
52745;BME280;38637;49.984;20.426;2022-12-18T01:52:09;100847.22;;;-4.51;91.31
52745;BME280;38637;49.984;20.426;2022-12-18T01:54:34;100862.78;;;-4.56;91.63
52745;BME280;38637;49.984;20.426;2022-12-18T01:57:00;100848.50;;;-4.66;91.75
52745;BME280;38637;49.984;20.426;2022-12-18T01:59:26;100891.78;;;-4.42;92.26
52745;BME280;38637;49.984;20.426;2022-12-18T02:01:52;100890.22;;;-4.44;91.75
52745;BME280;38637;49.984;20.426;2022-12-18T02:04:21;100892.38;;;-4.38;92.02
52745;BME280;38637;49.984;20.426;2022-12-18T02:06:51;100882.47;;;-4.47;91.85
52745;BME280;38637;49.984;20.426;2022-12-18T02:09:31;100874.03;;;-4.52;91.75
52745;BME280;38637;49.984;20.426;2022-12-18T02:14:44;100858.72;;;-4.71;90.77
52745;BME280;38637;49.984;20.426;2022-12-18T02:17:19;100905.38;;;-4.45;91.54
52745;BME280;38637;49.984;20.426;2022-12-18T02:19:58;100913.97;;;-4.41;91.17
52745;BME280;38637;49.984;20.426;2022-12-18T02:25:38;100922.09;;;-4.43;91.56
52745;BME280;38637;49.984;20.426;2022-12-18T02:28:09;100925.75;;;-4.44;91.37
52745;BME280;38637;49.984;20.426;2022-12-18T02:30:37;100921.59;;;-4.36;91.72
52745;BME280;38637;49.984;20.426;2022-12-18T02:33:05;100929.09;;;-4.30;91.67
52745;BME280;38637;49.984;20.426;2022-12-18T02:35:33;100939.84;;;-4.32;91.91
52745;BME280;38637;49.984;20.426;2022-12-18T02:37:59;100929.59;;;-4.36;92.08
52745;BME280;38637;49.984;20.426;2022-12-18T02:40:26;100935.66;;;-4.34;92.42
52745;BME280;38637;49.984;20.426;2022-12-18T02:42:53;100939.41;;;-4.37;91.95
52745;BME280;38637;49.984;20.426;2022-12-18T02:45:18;100922.97;;;-4.53;91.93
52745;BME280;38637;49.984;20.426;2022-12-18T02:47:46;100942.91;;;-4.36;92.20
52745;BME280;38637;49.984;20.426;2022-12-18T02:50:35;100951.75;;;-4.36;92.15
52745;BME280;38637;49.984;20.426;2022-12-18T02:53:09;100957.69;;;-4.32;92.07
52745;BME280;38637;49.984;20.426;2022-12-18T02:56:01;100961.09;;;-4.30;92.12
52745;BME280;38637;49.984;20.426;2022-12-18T02:58:46;100955.75;;;-4.30;91.94
52745;BME280;38637;49.984;20.426;2022-12-18T03:01:43;100958.53;;;-4.32;92.12
52745;BME280;38637;49.984;20.426;2022-12-18T03:06:51;100918.28;;;-4.61;91.64
52745;BME280;38637;49.984;20.426;2022-12-18T03:09:24;100967.50;;;-4.33;91.71
52745;BME280;38637;49.984;20.426;2022-12-18T03:11:55;100973.81;;;-4.34;91.27
52745;BME280;38637;49.984;20.426;2022-12-18T03:14:41;100942.09;;;-4.48;91.66
52745;BME280;38637;49.984;20.426;2022-12-18T03:17:13;100977.19;;;-4.32;91.16
52745;BME280;38637;49.984;20.426;2022-12-18T03:19:42;100965.84;;;-4.45;91.32
52745;BME280;38637;49.984;20.426;2022-12-18T03:22:09;100980.84;;;-4.33;91.76
52745;BME280;38637;49.984;20.426;2022-12-18T03:24:35;100982.78;;;-4.35;91.17
52745;BME280;38637;49.984;20.426;2022-12-18T03:27:09;100977.94;;;-4.41;91.50
52745;BME280;38637;49.984;20.426;2022-12-18T03:29:51;100986.19;;;-4.33;91.54
52745;BME280;38637;49.984;20.426;2022-12-18T03:32:25;100963.31;;;-4.47;91.23
52745;BME280;38637;49.984;20.426;2022-12-18T03:34:53;100995.84;;;-4.32;91.34
52745;BME280;38637;49.984;20.426;2022-12-18T03:37:21;100983.03;;;-4.38;91.32
52745;BME280;38637;49.984;20.426;2022-12-18T03:39:47;100974.44;;;-4.42;91.57
52745;BME280;38637;49.984;20.426;2022-12-18T03:42:29;100991.84;;;-4.26;90.78
52745;BME280;38637;49.984;20.426;2022-12-18T03:45:09;100970.44;;;-4.36;90.84
52745;BME280;38637;49.984;20.426;2022-12-18T03:50:14;100999.91;;;-4.37;89.70
52745;BME280;38637;49.984;20.426;2022-12-18T03:52:49;100999.53;;;-4.44;89.37
52745;BME280;38637;49.984;20.426;2022-12-18T03:55:18;101020.84;;;-4.33;90.31
52745;BME280;38637;49.984;20.426;2022-12-18T03:57:45;100993.94;;;-4.41;90.09
52745;BME280;38637;49.984;20.426;2022-12-18T04:00:13;101017.66;;;-4.27;90.05
52745;BME280;38637;49.984;20.426;2022-12-18T04:02:43;100988.03;;;-4.45;90.32
52745;BME280;38637;49.984;20.426;2022-12-18T04:05:11;100975.22;;;-4.62;89.61
52745;BME280;38637;49.984;20.426;2022-12-18T04:07:38;101030.78;;;-4.35;89.76
52745;BME280;38637;49.984;20.426;2022-12-18T04:10:06;101010.91;;;-4.42;89.59
52745;BME280;38637;49.984;20.426;2022-12-18T04:12:32;101003.91;;;-4.43;89.53
52745;BME280;38637;49.984;20.426;2022-12-18T04:14:57;100980.44;;;-4.60;90.17
52745;BME280;38637;49.984;20.426;2022-12-18T04:17:23;100984.91;;;-4.61;89.98
52745;BME280;38637;49.984;20.426;2022-12-18T04:19:49;101003.31;;;-4.47;89.54
52745;BME280;38637;49.984;20.426;2022-12-18T04:22:14;101019.91;;;-4.43;89.60
52745;BME280;38637;49.984;20.426;2022-12-18T04:24:39;101027.41;;;-4.37;89.66
52745;BME280;38637;49.984;20.426;2022-12-18T04:27:05;101023.16;;;-4.40;89.98
52745;BME280;38637;49.984;20.426;2022-12-18T04:29:30;101046.66;;;-4.33;90.02
52745;BME280;38637;49.984;20.426;2022-12-18T04:31:55;101046.06;;;-4.37;90.36
52745;BME280;38637;49.984;20.426;2022-12-18T04:34:21;101048.25;;;-4.31;91.18
52745;BME280;38637;49.984;20.426;2022-12-18T04:36:46;101047.41;;;-4.31;90.37
52745;BME280;38637;49.984;20.426;2022-12-18T04:39:12;100999.09;;;-4.60;90.19
52745;BME280;38637;49.984;20.426;2022-12-18T04:41:37;101058.91;;;-4.31;90.19
52745;BME280;38637;49.984;20.426;2022-12-18T04:44:03;101063.25;;;-4.30;90.26
52745;BME280;38637;49.984;20.426;2022-12-18T04:46:29;101032.63;;;-4.47;90.25
52745;BME280;38637;49.984;20.426;2022-12-18T04:48:54;101039.75;;;-4.36;89.92
52745;BME280;38637;49.984;20.426;2022-12-18T04:51:20;101028.41;;;-4.49;89.77
52745;BME280;38637;49.984;20.426;2022-12-18T04:53:45;101081.19;;;-4.21;90.31
52745;BME280;38637;49.984;20.426;2022-12-18T04:56:12;101079.25;;;-4.19;89.91
52745;BME280;38637;49.984;20.426;2022-12-18T04:58:40;101079.59;;;-4.23;89.94
52745;BME280;38637;49.984;20.426;2022-12-18T05:01:07;101081.19;;;-4.21;89.87
52745;BME280;38637;49.984;20.426;2022-12-18T05:03:32;101090.41;;;-4.25;89.34
52745;BME280;38637;49.984;20.426;2022-12-18T05:05:58;101081.56;;;-4.36;89.37
52745;BME280;38637;49.984;20.426;2022-12-18T05:08:23;101096.25;;;-4.31;90.24
52745;BME280;38637;49.984;20.426;2022-12-18T05:10:49;101108.72;;;-4.31;89.56
52745;BME280;38637;49.984;20.426;2022-12-18T05:13:14;101086.16;;;-4.39;90.18
52745;BME280;38637;49.984;20.426;2022-12-18T05:15:39;101069.97;;;-4.47;90.18
52745;BME280;38637;49.984;20.426;2022-12-18T05:18:04;101086.66;;;-4.33;89.38
52745;BME280;38637;49.984;20.426;2022-12-18T05:20:30;101104.59;;;-4.24;89.20
52745;BME280;38637;49.984;20.426;2022-12-18T05:22:56;101094.28;;;-4.29;89.09
52745;BME280;38637;49.984;20.426;2022-12-18T05:25:22;101078.06;;;-4.48;89.87
52745;BME280;38637;49.984;20.426;2022-12-18T05:27:48;101079.66;;;-4.46;89.92
52745;BME280;38637;49.984;20.426;2022-12-18T05:30:14;101119.25;;;-4.30;90.21
52745;BME280;38637;49.984;20.426;2022-12-18T05:32:39;101097.47;;;-4.46;89.60
52745;BME280;38637;49.984;20.426;2022-12-18T05:35:09;101105.91;;;-4.41;89.54
52745;BME280;38637;49.984;20.426;2022-12-18T05:37:35;101106.16;;;-4.44;89.82
52745;BME280;38637;49.984;20.426;2022-12-18T05:40:01;101098.16;;;-4.44;89.50
52745;BME280;38637;49.984;20.426;2022-12-18T05:42:26;101125.69;;;-4.32;89.64
52745;BME280;38637;49.984;20.426;2022-12-18T05:44:51;101093.94;;;-4.35;90.04
52745;BME280;38637;49.984;20.426;2022-12-18T05:47:17;101120.09;;;-4.29;89.22
52745;BME280;38637;49.984;20.426;2022-12-18T05:49:42;101112.00;;;-4.28;89.33
52745;BME280;38637;49.984;20.426;2022-12-18T05:52:08;101107.63;;;-4.40;89.58
52745;BME280;38637;49.984;20.426;2022-12-18T05:54:34;101113.06;;;-4.42;89.45
52745;BME280;38637;49.984;20.426;2022-12-18T05:56:59;101110.78;;;-4.46;89.35
52745;BME280;38637;49.984;20.426;2022-12-18T05:59:24;101118.78;;;-4.46;89.94
52745;BME280;38637;49.984;20.426;2022-12-18T06:01:50;101133.69;;;-4.44;90.16
52745;BME280;38637;49.984;20.426;2022-12-18T06:04:15;101127.75;;;-4.47;89.80
52745;BME280;38637;49.984;20.426;2022-12-18T06:06:40;101135.25;;;-4.41;89.98
52745;BME280;38637;49.984;20.426;2022-12-18T06:09:06;101085.59;;;-4.76;90.06
52745;BME280;38637;49.984;20.426;2022-12-18T06:11:36;101137.22;;;-4.43;89.88
52745;BME280;38637;49.984;20.426;2022-12-18T06:14:02;101141.56;;;-4.53;89.67
52745;BME280;38637;49.984;20.426;2022-12-18T06:16:28;101134.44;;;-4.53;90.56
52745;BME280;38637;49.984;20.426;2022-12-18T06:18:58;101161.91;;;-4.41;90.09
52745;BME280;38637;49.984;20.426;2022-12-18T06:21:23;101160.72;;;-4.37;90.21
52745;BME280;38637;49.984;20.426;2022-12-18T06:23:49;101157.69;;;-4.44;89.95
52745;BME280;38637;49.984;20.426;2022-12-18T06:26:14;101167.50;;;-4.44;89.50
52745;BME280;38637;49.984;20.426;2022-12-18T06:28:40;101168.22;;;-4.42;89.79
52745;BME280;38637;49.984;20.426;2022-12-18T06:31:06;101162.56;;;-4.37;90.02
52745;BME280;38637;49.984;20.426;2022-12-18T06:33:32;101165.19;;;-4.49;88.97
52745;BME280;38637;49.984;20.426;2022-12-18T06:38:27;101181.69;;;-4.32;89.46
52745;BME280;38637;49.984;20.426;2022-12-18T06:40:52;101163.00;;;-4.55;88.95
52745;BME280;38637;49.984;20.426;2022-12-18T06:43:17;101180.81;;;-4.44;89.18
52745;BME280;38637;49.984;20.426;2022-12-18T06:45:43;101141.81;;;-4.68;89.08
52745;BME280;38637;49.984;20.426;2022-12-18T06:48:08;101122.66;;;-4.73;89.14
52745;BME280;38637;49.984;20.426;2022-12-18T06:50:33;101187.84;;;-4.32;88.81
52745;BME280;38637;49.984;20.426;2022-12-18T06:52:59;101171.13;;;-4.45;88.57
52745;BME280;38637;49.984;20.426;2022-12-18T06:55:24;101196.72;;;-4.31;88.49
52745;BME280;38637;49.984;20.426;2022-12-18T06:57:49;101196.72;;;-4.31;88.76
52745;BME280;38637;49.984;20.426;2022-12-18T07:00:15;101171.28;;;-4.47;88.56
52745;BME280;38637;49.984;20.426;2022-12-18T07:02:40;101193.19;;;-4.32;88.45
52745;BME280;38637;49.984;20.426;2022-12-18T07:05:06;101183.00;;;-4.49;87.96
52745;BME280;38637;49.984;20.426;2022-12-18T07:07:33;101212.13;;;-4.24;88.29
52745;BME280;38637;49.984;20.426;2022-12-18T07:09:59;101214.28;;;-4.18;87.84
52745;BME280;38637;49.984;20.426;2022-12-18T07:12:24;101200.13;;;-4.18;87.94
52745;BME280;38637;49.984;20.426;2022-12-18T07:14:51;101213.81;;;-4.11;87.35
52745;BME280;38637;49.984;20.426;2022-12-18T07:17:16;101223.50;;;-4.10;86.75
52745;BME280;38637;49.984;20.426;2022-12-18T07:19:41;101218.66;;;-4.17;86.78
52745;BME280;38637;49.984;20.426;2022-12-18T07:22:07;101235.16;;;-4.11;87.03
52745;BME280;38637;49.984;20.426;2022-12-18T07:24:33;101204.72;;;-4.20;86.99
52745;BME280;38637;49.984;20.426;2022-12-18T07:26:59;101237.69;;;-3.99;86.72
52745;BME280;38637;49.984;20.426;2022-12-18T07:29:24;101235.75;;;-3.97;85.99
52745;BME280;38637;49.984;20.426;2022-12-18T07:31:49;101262.06;;;-3.92;85.96
52745;BME280;38637;49.984;20.426;2022-12-18T07:34:15;101255.66;;;-4.01;86.07
52745;BME280;38637;49.984;20.426;2022-12-18T07:36:40;101272.63;;;-3.90;85.87
52745;BME280;38637;49.984;20.426;2022-12-18T07:39:06;101223.38;;;-4.20;85.91
52745;BME280;38637;49.984;20.426;2022-12-18T07:41:31;101273.38;;;-3.88;85.69
52745;BME280;38637;49.984;20.426;2022-12-18T07:43:56;101263.28;;;-3.96;85.54
52745;BME280;38637;49.984;20.426;2022-12-18T07:46:22;101239.25;;;-4.07;85.53
52745;BME280;38637;49.984;20.426;2022-12-18T07:48:47;101274.44;;;-3.80;85.94
52745;BME280;38637;49.984;20.426;2022-12-18T07:51:13;101278.09;;;-3.70;85.94
52745;BME280;38637;49.984;20.426;2022-12-18T07:53:39;101281.50;;;-3.79;84.48
52745;BME280;38637;49.984;20.426;2022-12-18T07:56:07;101297.63;;;-3.69;84.81
52745;BME280;38637;49.984;20.426;2022-12-18T07:58:35;101305.63;;;-3.69;84.81
52745;BME280;38637;49.984;20.426;2022-12-18T08:01:07;101292.03;;;-3.66;84.63
52745;BME280;38637;49.984;20.426;2022-12-18T08:03:33;101292.53;;;-3.61;84.81
52745;BME280;38637;49.984;20.426;2022-12-18T08:06:00;101258.06;;;-3.75;84.74
52745;BME280;38637;49.984;20.426;2022-12-18T08:08:25;101246.81;;;-3.79;84.85
52745;BME280;38637;49.984;20.426;2022-12-18T08:10:50;101275.16;;;-3.55;84.73
52745;BME280;38637;49.984;20.426;2022-12-18T08:13:15;101294.56;;;-3.42;84.23
52745;BME280;38637;49.984;20.426;2022-12-18T08:15:41;101286.91;;;-3.47;83.84
52745;BME280;38637;49.984;20.426;2022-12-18T08:18:06;101291.31;;;-3.45;83.78
52745;BME280;38637;49.984;20.426;2022-12-18T08:20:31;101307.19;;;-3.33;83.13
52745;BME280;38637;49.984;20.426;2022-12-18T08:22:57;101294.56;;;-3.42;83.39
52745;BME280;38637;49.984;20.426;2022-12-18T08:25:23;101288.75;;;-3.47;82.80
52745;BME280;38637;49.984;20.426;2022-12-18T08:27:48;101315.28;;;-3.23;83.81
52745;BME280;38637;49.984;20.426;2022-12-18T08:30:13;101285.09;;;-3.46;83.23
52745;BME280;38637;49.984;20.426;2022-12-18T08:32:39;101308.88;;;-3.32;82.63
52745;BME280;38637;49.984;20.426;2022-12-18T08:35:04;101291.50;;;-3.37;82.81
52745;BME280;38637;49.984;20.426;2022-12-18T08:37:30;101304.47;;;-3.21;83.29
52745;BME280;38637;49.984;20.426;2022-12-18T08:39:55;101320.84;;;-3.04;83.18
52745;BME280;38637;49.984;20.426;2022-12-18T08:42:20;101300.94;;;-3.11;82.91
52745;BME280;38637;49.984;20.426;2022-12-18T08:45:05;101321.31;;;-2.98;81.55
52745;BME280;38637;49.984;20.426;2022-12-18T08:47:30;101294.75;;;-3.11;82.03
52745;BME280;38637;49.984;20.426;2022-12-18T08:49:55;101326.63;;;-2.87;82.24
52745;BME280;38637;49.984;20.426;2022-12-18T08:52:21;101312.06;;;-2.94;81.32
52745;BME280;38637;49.984;20.426;2022-12-18T08:54:46;101329.31;;;-2.87;80.83
52745;BME280;38637;49.984;20.426;2022-12-18T08:57:11;101300.53;;;-2.95;81.09
52745;BME280;38637;49.984;20.426;2022-12-18T08:59:36;101328.91;;;-2.83;79.69
52745;BME280;38637;49.984;20.426;2022-12-18T09:02:02;101318.63;;;-2.87;80.42
52745;BME280;38637;49.984;20.426;2022-12-18T09:04:27;101303.09;;;-3.05;80.15
52745;BME280;38637;49.984;20.426;2022-12-18T09:06:52;101321.81;;;-3.05;80.22
52745;BME280;38637;49.984;20.426;2022-12-18T09:09:18;101338.28;;;-2.88;80.47
52745;BME280;38637;49.984;20.426;2022-12-18T09:11:43;101336.69;;;-2.91;79.81
52745;BME280;38637;49.984;20.426;2022-12-18T09:14:09;101349.06;;;-2.79;79.47
52745;BME280;38637;49.984;20.426;2022-12-18T09:16:35;101354.41;;;-2.79;79.41
52745;BME280;38637;49.984;20.426;2022-12-18T09:19:01;101346.78;;;-2.83;80.32
52745;BME280;38637;49.984;20.426;2022-12-18T09:21:29;101306.72;;;-2.94;80.33
52745;BME280;38637;49.984;20.426;2022-12-18T09:23:55;101354.88;;;-2.73;79.31
52745;BME280;38637;49.984;20.426;2022-12-18T09:26:22;101346.38;;;-2.79;78.29
52745;BME280;38637;49.984;20.426;2022-12-18T09:28:49;101276.81;;;-3.20;79.18
52745;BME280;38637;49.984;20.426;2022-12-18T09:31:16;101357.72;;;-2.75;79.53
52745;BME280;38637;49.984;20.426;2022-12-18T09:33:42;101347.97;;;-2.76;78.57
52745;BME280;38637;49.984;20.426;2022-12-18T09:36:09;101311.22;;;-2.95;78.31
52745;BME280;38637;49.984;20.426;2022-12-18T09:38:35;101337.78;;;-2.82;78.20
52745;BME280;38637;49.984;20.426;2022-12-18T09:43:50;101335.00;;;-2.81;78.50
52745;BME280;38637;49.984;20.426;2022-12-18T09:46:23;101333.88;;;-2.46;78.00
52745;BME280;38637;49.984;20.426;2022-12-18T09:48:52;101339.94;;;-2.44;76.93
52745;BME280;38637;49.984;20.426;2022-12-18T09:51:23;101336.81;;;-2.28;76.92
52745;BME280;38637;49.984;20.426;2022-12-18T09:53:55;101345.13;;;-1.89;75.78
52745;BME280;38637;49.984;20.426;2022-12-18T09:56:22;101345.09;;;-1.68;74.89
52745;BME280;38637;49.984;20.426;2022-12-18T09:58:56;101341.75;;;-1.51;72.79
52745;BME280;38637;49.984;20.426;2022-12-18T10:01:23;101335.72;;;-1.53;72.88
52745;BME280;38637;49.984;20.426;2022-12-18T10:03:49;101344.31;;;-1.49;71.90
52745;BME280;38637;49.984;20.426;2022-12-18T10:06:20;101355.53;;;-1.34;71.55
52745;BME280;38637;49.984;20.426;2022-12-18T10:08:58;101351.94;;;-1.45;70.94
52745;BME280;38637;49.984;20.426;2022-12-18T10:11:40;101353.75;;;-1.55;71.18
52745;BME280;38637;49.984;20.426;2022-12-18T10:14:29;101353.28;;;-1.29;70.96
52745;BME280;38637;49.984;20.426;2022-12-18T10:17:07;101347.63;;;-1.36;71.67
52745;BME280;38637;49.984;20.426;2022-12-18T10:19:49;101338.75;;;-1.67;71.16
52745;BME280;38637;49.984;20.426;2022-12-18T10:22:25;101348.84;;;-1.50;71.47
52745;BME280;38637;49.984;20.426;2022-12-18T10:27:36;101336.06;;;-1.36;70.26
52745;BME280;38637;49.984;20.426;2022-12-18T10:30:11;101314.34;;;-1.33;70.42
52745;BME280;38637;49.984;20.426;2022-12-18T10:32:37;101319.63;;;-1.03;68.75
52745;BME280;38637;49.984;20.426;2022-12-18T10:35:03;101350.16;;;-0.75;68.40
52745;BME280;38637;49.984;20.426;2022-12-18T10:37:29;101322.34;;;-0.83;67.94
52745;BME280;38637;49.984;20.426;2022-12-18T10:40:15;101335.34;;;-0.50;67.69
52745;BME280;38637;49.984;20.426;2022-12-18T10:42:41;101349.34;;;-0.27;67.12
52745;BME280;38637;49.984;20.426;2022-12-18T10:45:16;101349.00;;;-0.04;66.19
52745;BME280;38637;49.984;20.426;2022-12-18T10:47:46;101303.81;;;-0.18;65.93
52745;BME280;38637;49.984;20.426;2022-12-18T10:50:42;101339.47;;;0.21;65.23
52745;BME280;38637;49.984;20.426;2022-12-18T10:53:24;101341.28;;;0.40;64.46
52745;BME280;38637;49.984;20.426;2022-12-18T10:55:52;101337.97;;;0.56;63.58
52745;BME280;38637;49.984;20.426;2022-12-18T10:58:33;101322.69;;;0.84;64.39
52745;BME280;38637;49.984;20.426;2022-12-18T11:03:36;101321.38;;;1.51;60.54
52745;BME280;38637;49.984;20.426;2022-12-18T11:06:13;101322.72;;;1.73;61.16
52745;BME280;38637;49.984;20.426;2022-12-18T11:08:41;101309.06;;;1.93;60.28
52745;BME280;38637;49.984;20.426;2022-12-18T11:11:15;101321.75;;;2.26;60.15
52745;BME280;38637;49.984;20.426;2022-12-18T11:14:14;101316.63;;;2.15;59.00
52745;BME280;38637;49.984;20.426;2022-12-18T11:16:43;101307.03;;;2.13;57.81
52745;BME280;38637;49.984;20.426;2022-12-18T11:22:33;101287.94;;;1.80;57.72
52745;BME280;38637;49.984;20.426;2022-12-18T11:25:07;101316.91;;;2.30;59.67
52745;BME280;38637;49.984;20.426;2022-12-18T11:27:48;101304.97;;;2.75;59.80
52745;BME280;38637;49.984;20.426;2022-12-18T11:36:49;101281.63;;;3.08;56.68
52745;BME280;38637;49.984;20.426;2022-12-18T11:39:24;101281.16;;;3.29;56.46
52745;BME280;38637;49.984;20.426;2022-12-18T11:41:57;101284.38;;;3.57;57.34
52745;BME280;38637;49.984;20.426;2022-12-18T11:50:18;101299.69;;;4.06;55.71
52745;BME280;38637;49.984;20.426;2022-12-18T11:52:43;101317.44;;;4.08;52.94
52745;BME280;38637;49.984;20.426;2022-12-18T11:55:23;101317.19;;;4.51;53.93
52745;BME280;38637;49.984;20.426;2022-12-18T11:58:18;101325.09;;;5.00;53.74
52745;BME280;38637;49.984;20.426;2022-12-18T12:01:03;101298.84;;;5.09;52.67
52745;BME280;38637;49.984;20.426;2022-12-18T12:18:05;101307.47;;;5.58;53.17
52745;BME280;38637;49.984;20.426;2022-12-18T12:23:34;101334.47;;;4.42;55.06
52745;BME280;38637;49.984;20.426;2022-12-18T12:26:07;101330.66;;;3.95;56.79
52745;BME280;38637;49.984;20.426;2022-12-18T12:34:23;101332.16;;;4.06;57.61
52745;BME280;38637;49.984;20.426;2022-12-18T12:39:36;101335.16;;;3.45;58.30
52745;BME280;38637;49.984;20.426;2022-12-18T12:42:04;101347.06;;;3.02;59.94
52745;BME280;38637;49.984;20.426;2022-12-18T12:44:55;101349.00;;;2.49;60.00
52745;BME280;38637;49.984;20.426;2022-12-18T12:47:31;101331.38;;;2.03;61.74
52745;BME280;38637;49.984;20.426;2022-12-18T12:50:01;101358.16;;;1.87;61.93
52745;BME280;38637;49.984;20.426;2022-12-18T12:52:36;101363.03;;;1.65;63.58
52745;BME280;38637;49.984;20.426;2022-12-18T12:55:05;101362.50;;;1.44;63.01
52745;BME280;38637;49.984;20.426;2022-12-18T12:57:38;101367.50;;;1.21;64.01
52745;BME280;38637;49.984;20.426;2022-12-18T13:00:06;101375.81;;;1.00;65.10
52745;BME280;38637;49.984;20.426;2022-12-18T13:02:44;101365.91;;;0.73;64.79
52745;BME280;38637;49.984;20.426;2022-12-18T13:05:28;101378.97;;;0.67;65.22
52745;BME280;38637;49.984;20.426;2022-12-18T13:08:02;101364.69;;;0.57;65.47
52745;BME280;38637;49.984;20.426;2022-12-18T13:10:37;101387.63;;;1.34;64.52
52745;BME280;38637;49.984;20.426;2022-12-18T13:13:06;101389.25;;;1.99;63.09
52745;BME280;38637;49.984;20.426;2022-12-18T13:15:33;101405.66;;;2.05;62.24
52745;BME280;38637;49.984;20.426;2022-12-18T13:20:37;101390.91;;;1.74;62.14
52745;BME280;38637;49.984;20.426;2022-12-18T13:23:26;101397.34;;;2.43;59.64
52745;BME280;38637;49.984;20.426;2022-12-18T13:31:05;101409.22;;;2.32;58.01
52745;BME280;38637;49.984;20.426;2022-12-18T13:33:42;101400.13;;;1.71;59.00
52745;BME280;38637;49.984;20.426;2022-12-18T13:36:23;101415.38;;;1.17;60.42
52745;BME280;38637;49.984;20.426;2022-12-18T13:39:11;101420.13;;;0.68;62.54
52745;BME280;38637;49.984;20.426;2022-12-18T13:41:36;101431.38;;;0.34;64.47
52745;BME280;38637;49.984;20.426;2022-12-18T13:44:33;101440.75;;;0.11;65.87
52745;BME280;38637;49.984;20.426;2022-12-18T13:47:01;101428.75;;;-0.24;65.86
52745;BME280;38637;49.984;20.426;2022-12-18T13:49:43;101426.72;;;-0.51;65.62
52745;BME280;38637;49.984;20.426;2022-12-18T13:52:21;101420.75;;;-0.74;66.85
52745;BME280;38637;49.984;20.426;2022-12-18T13:55:01;101386.06;;;-1.16;67.58
52745;BME280;38637;49.984;20.426;2022-12-18T13:57:37;101431.38;;;-1.13;67.44
52745;BME280;38637;49.984;20.426;2022-12-18T14:00:28;101434.66;;;-1.30;67.91
52745;BME280;38637;49.984;20.426;2022-12-18T14:02:55;101438.53;;;-1.44;68.61
52745;BME280;38637;49.984;20.426;2022-12-18T14:05:34;101429.53;;;-1.64;69.10
52745;BME280;38637;49.984;20.426;2022-12-18T14:08:05;101407.53;;;-1.89;69.20